sensor_id;sensor_type;location;lat;lon;timestamp;P1;durP1;ratioP1;P2;durP2;ratioP2
75885;SDS011;64561;44.018;10.144;2023-06-10T00:00:11;8.07;;;4.10;;
75885;SDS011;64561;44.018;10.144;2023-06-10T00:02:41;6.90;;;3.63;;
75885;SDS011;64561;44.018;10.144;2023-06-10T00:05:16;9.00;;;3.80;;
75885;SDS011;64561;44.018;10.144;2023-06-10T00:07:43;7.20;;;3.55;;
75885;SDS011;64561;44.018;10.144;2023-06-10T00:10:16;6.07;;;3.22;;
75885;SDS011;64561;44.018;10.144;2023-06-10T00:12:44;6.15;;;3.28;;
75885;SDS011;64561;44.018;10.144;2023-06-10T00:15:12;7.47;;;3.90;;
75885;SDS011;64561;44.018;10.144;2023-06-10T00:17:39;7.00;;;4.07;;
75885;SDS011;64561;44.018;10.144;2023-06-10T00:20:08;6.38;;;3.80;;
75885;SDS011;64561;44.018;10.144;2023-06-10T00:22:39;11.82;;;5.15;;
75885;SDS011;64561;44.018;10.144;2023-06-10T00:25:08;4.95;;;3.65;;
75885;SDS011;64561;44.018;10.144;2023-06-10T00:27:37;8.90;;;3.60;;
75885;SDS011;64561;44.018;10.144;2023-06-10T00:30:04;7.43;;;3.60;;
75885;SDS011;64561;44.018;10.144;2023-06-10T00:32:34;8.13;;;4.32;;
75885;SDS011;64561;44.018;10.144;2023-06-10T00:35:02;6.70;;;3.47;;
75885;SDS011;64561;44.018;10.144;2023-06-10T00:37:33;10.88;;;4.20;;
75885;SDS011;64561;44.018;10.144;2023-06-10T00:40:05;8.35;;;4.43;;
75885;SDS011;64561;44.018;10.144;2023-06-10T00:42:32;6.93;;;3.70;;
75885;SDS011;64561;44.018;10.144;2023-06-10T00:44:59;8.82;;;4.03;;
75885;SDS011;64561;44.018;10.144;2023-06-10T00:47:27;7.13;;;4.38;;
75885;SDS011;64561;44.018;10.144;2023-06-10T00:49:54;6.43;;;4.18;;
75885;SDS011;64561;44.018;10.144;2023-06-10T00:52:23;6.35;;;3.60;;
75885;SDS011;64561;44.018;10.144;2023-06-10T00:54:54;9.25;;;4.15;;
75885;SDS011;64561;44.018;10.144;2023-06-10T00:57:21;8.73;;;4.13;;
75885;SDS011;64561;44.018;10.144;2023-06-10T00:59:48;5.75;;;4.03;;
75885;SDS011;64561;44.018;10.144;2023-06-10T01:02:16;6.82;;;4.05;;
75885;SDS011;64561;44.018;10.144;2023-06-10T01:04:43;6.65;;;3.60;;
75885;SDS011;64561;44.018;10.144;2023-06-10T01:07:26;7.20;;;4.28;;
75885;SDS011;64561;44.018;10.144;2023-06-10T01:13:10;10.57;;;4.65;;
75885;SDS011;64561;44.018;10.144;2023-06-10T01:15:38;6.45;;;4.35;;
75885;SDS011;64561;44.018;10.144;2023-06-10T01:18:06;7.10;;;4.22;;
75885;SDS011;64561;44.018;10.144;2023-06-10T01:20:42;8.38;;;4.15;;
75885;SDS011;64561;44.018;10.144;2023-06-10T01:23:10;7.00;;;4.00;;
75885;SDS011;64561;44.018;10.144;2023-06-10T01:25:38;8.25;;;3.90;;
75885;SDS011;64561;44.018;10.144;2023-06-10T01:28:13;7.80;;;4.15;;
75885;SDS011;64561;44.018;10.144;2023-06-10T01:33:39;9.15;;;4.38;;
75885;SDS011;64561;44.018;10.144;2023-06-10T01:36:09;6.53;;;5.03;;
75885;SDS011;64561;44.018;10.144;2023-06-10T01:38:47;8.48;;;4.53;;
75885;SDS011;64561;44.018;10.144;2023-06-10T01:41:17;8.52;;;4.20;;
75885;SDS011;64561;44.018;10.144;2023-06-10T01:43:45;8.70;;;5.30;;
75885;SDS011;64561;44.018;10.144;2023-06-10T01:46:13;6.30;;;4.05;;
75885;SDS011;64561;44.018;10.144;2023-06-10T01:48:42;6.50;;;4.82;;
75885;SDS011;64561;44.018;10.144;2023-06-10T01:51:09;8.52;;;5.15;;
75885;SDS011;64561;44.018;10.144;2023-06-10T01:53:36;7.25;;;4.88;;
75885;SDS011;64561;44.018;10.144;2023-06-10T01:56:03;9.98;;;4.82;;
75885;SDS011;64561;44.018;10.144;2023-06-10T01:58:30;9.82;;;4.72;;
75885;SDS011;64561;44.018;10.144;2023-06-10T02:00:57;9.07;;;5.20;;
75885;SDS011;64561;44.018;10.144;2023-06-10T02:03:24;8.93;;;5.00;;
75885;SDS011;64561;44.018;10.144;2023-06-10T02:05:52;8.27;;;4.85;;
75885;SDS011;64561;44.018;10.144;2023-06-10T02:08:19;7.60;;;5.40;;
75885;SDS011;64561;44.018;10.144;2023-06-10T02:10:46;9.13;;;4.70;;
75885;SDS011;64561;44.018;10.144;2023-06-10T02:13:13;11.73;;;6.07;;
75885;SDS011;64561;44.018;10.144;2023-06-10T02:15:49;10.68;;;5.20;;
75885;SDS011;64561;44.018;10.144;2023-06-10T02:18:18;6.38;;;4.88;;
75885;SDS011;64561;44.018;10.144;2023-06-10T02:20:47;9.45;;;5.13;;
75885;SDS011;64561;44.018;10.144;2023-06-10T02:23:17;8.82;;;5.28;;
75885;SDS011;64561;44.018;10.144;2023-06-10T02:25:44;7.47;;;4.68;;
75885;SDS011;64561;44.018;10.144;2023-06-10T02:28:11;8.32;;;4.53;;
75885;SDS011;64561;44.018;10.144;2023-06-10T02:30:41;10.63;;;4.85;;
75885;SDS011;64561;44.018;10.144;2023-06-10T02:35:40;9.65;;;5.10;;
75885;SDS011;64561;44.018;10.144;2023-06-10T02:38:07;11.13;;;5.03;;
75885;SDS011;64561;44.018;10.144;2023-06-10T02:40:35;9.40;;;5.70;;
75885;SDS011;64561;44.018;10.144;2023-06-10T02:43:02;9.02;;;5.05;;
75885;SDS011;64561;44.018;10.144;2023-06-10T02:45:30;7.43;;;4.70;;
75885;SDS011;64561;44.018;10.144;2023-06-10T02:47:59;9.52;;;4.63;;
75885;SDS011;64561;44.018;10.144;2023-06-10T02:50:26;8.45;;;5.97;;
75885;SDS011;64561;44.018;10.144;2023-06-10T02:53:07;9.02;;;4.93;;
75885;SDS011;64561;44.018;10.144;2023-06-10T02:55:37;11.82;;;6.55;;
75885;SDS011;64561;44.018;10.144;2023-06-10T02:58:08;8.88;;;5.60;;
75885;SDS011;64561;44.018;10.144;2023-06-10T03:00:35;11.48;;;5.75;;
75885;SDS011;64561;44.018;10.144;2023-06-10T03:03:03;9.25;;;4.72;;
75885;SDS011;64561;44.018;10.144;2023-06-10T03:05:41;8.05;;;5.30;;
75885;SDS011;64561;44.018;10.144;2023-06-10T03:08:08;12.60;;;5.63;;
75885;SDS011;64561;44.018;10.144;2023-06-10T03:13:07;8.65;;;4.75;;
75885;SDS011;64561;44.018;10.144;2023-06-10T03:15:34;8.15;;;5.60;;
75885;SDS011;64561;44.018;10.144;2023-06-10T03:18:05;9.60;;;5.68;;
75885;SDS011;64561;44.018;10.144;2023-06-10T03:20:33;10.48;;;5.47;;
75885;SDS011;64561;44.018;10.144;2023-06-10T03:23:05;11.77;;;5.45;;
75885;SDS011;64561;44.018;10.144;2023-06-10T03:25:35;11.98;;;6.10;;
75885;SDS011;64561;44.018;10.144;2023-06-10T03:28:02;10.15;;;6.20;;
75885;SDS011;64561;44.018;10.144;2023-06-10T03:30:30;12.20;;;5.47;;
75885;SDS011;64561;44.018;10.144;2023-06-10T03:32:58;11.90;;;5.40;;
75885;SDS011;64561;44.018;10.144;2023-06-10T03:35:27;11.15;;;5.65;;
75885;SDS011;64561;44.018;10.144;2023-06-10T03:37:54;8.98;;;5.85;;
75885;SDS011;64561;44.018;10.144;2023-06-10T03:40:21;8.48;;;5.90;;
75885;SDS011;64561;44.018;10.144;2023-06-10T03:42:48;7.18;;;5.65;;
75885;SDS011;64561;44.018;10.144;2023-06-10T03:45:17;9.88;;;5.72;;
75885;SDS011;64561;44.018;10.144;2023-06-10T03:47:46;8.50;;;5.55;;
75885;SDS011;64561;44.018;10.144;2023-06-10T03:50:18;9.88;;;5.40;;
75885;SDS011;64561;44.018;10.144;2023-06-10T03:52:45;9.35;;;5.50;;
75885;SDS011;64561;44.018;10.144;2023-06-10T03:55:15;8.55;;;5.90;;
75885;SDS011;64561;44.018;10.144;2023-06-10T04:00:12;8.30;;;6.05;;
75885;SDS011;64561;44.018;10.144;2023-06-10T04:05:24;9.93;;;5.43;;
75885;SDS011;64561;44.018;10.144;2023-06-10T04:07:51;9.90;;;6.00;;
75885;SDS011;64561;44.018;10.144;2023-06-10T04:10:19;9.70;;;6.88;;
75885;SDS011;64561;44.018;10.144;2023-06-10T04:12:46;10.45;;;6.03;;
75885;SDS011;64561;44.018;10.144;2023-06-10T04:15:13;10.52;;;6.28;;
75885;SDS011;64561;44.018;10.144;2023-06-10T04:17:41;11.93;;;6.00;;
75885;SDS011;64561;44.018;10.144;2023-06-10T04:20:10;8.00;;;5.68;;
75885;SDS011;64561;44.018;10.144;2023-06-10T04:22:41;9.40;;;5.38;;
75885;SDS011;64561;44.018;10.144;2023-06-10T04:25:09;9.52;;;5.55;;
75885;SDS011;64561;44.018;10.144;2023-06-10T04:27:39;10.65;;;6.95;;
75885;SDS011;64561;44.018;10.144;2023-06-10T04:30:06;10.90;;;7.00;;
75885;SDS011;64561;44.018;10.144;2023-06-10T04:32:36;11.40;;;6.50;;
75885;SDS011;64561;44.018;10.144;2023-06-10T04:35:05;10.35;;;5.78;;
75885;SDS011;64561;44.018;10.144;2023-06-10T04:37:33;12.10;;;5.72;;
75885;SDS011;64561;44.018;10.144;2023-06-10T04:40:01;7.65;;;5.35;;
75885;SDS011;64561;44.018;10.144;2023-06-10T04:42:29;12.63;;;7.50;;
75885;SDS011;64561;44.018;10.144;2023-06-10T04:44:56;16.73;;;6.47;;
75885;SDS011;64561;44.018;10.144;2023-06-10T04:47:23;10.27;;;6.28;;
75885;SDS011;64561;44.018;10.144;2023-06-10T04:49:50;11.90;;;6.63;;
75885;SDS011;64561;44.018;10.144;2023-06-10T04:52:18;8.32;;;5.80;;
75885;SDS011;64561;44.018;10.144;2023-06-10T04:54:45;9.43;;;6.00;;
75885;SDS011;64561;44.018;10.144;2023-06-10T04:57:12;13.35;;;5.60;;
75885;SDS011;64561;44.018;10.144;2023-06-10T04:59:39;8.75;;;5.78;;
75885;SDS011;64561;44.018;10.144;2023-06-10T05:02:06;10.60;;;6.60;;
75885;SDS011;64561;44.018;10.144;2023-06-10T05:04:33;11.93;;;6.00;;
75885;SDS011;64561;44.018;10.144;2023-06-10T05:07:00;8.20;;;5.60;;
75885;SDS011;64561;44.018;10.144;2023-06-10T05:09:28;9.57;;;5.72;;
75885;SDS011;64561;44.018;10.144;2023-06-10T05:11:55;8.43;;;5.10;;
75885;SDS011;64561;44.018;10.144;2023-06-10T05:14:22;10.02;;;5.47;;
75885;SDS011;64561;44.018;10.144;2023-06-10T05:16:49;9.70;;;5.43;;
75885;SDS011;64561;44.018;10.144;2023-06-10T05:19:16;7.50;;;4.82;;
75885;SDS011;64561;44.018;10.144;2023-06-10T05:21:44;10.43;;;6.88;;
75885;SDS011;64561;44.018;10.144;2023-06-10T05:24:11;10.98;;;5.97;;
75885;SDS011;64561;44.018;10.144;2023-06-10T05:26:38;8.68;;;4.80;;
75885;SDS011;64561;44.018;10.144;2023-06-10T05:29:05;9.55;;;5.45;;
75885;SDS011;64561;44.018;10.144;2023-06-10T05:31:33;6.57;;;4.88;;
75885;SDS011;64561;44.018;10.144;2023-06-10T05:34:13;7.10;;;5.22;;
75885;SDS011;64561;44.018;10.144;2023-06-10T05:36:40;8.02;;;5.43;;
75885;SDS011;64561;44.018;10.144;2023-06-10T05:39:08;8.20;;;5.80;;
75885;SDS011;64561;44.018;10.144;2023-06-10T05:41:36;7.55;;;5.47;;
75885;SDS011;64561;44.018;10.144;2023-06-10T05:44:03;8.60;;;6.00;;
75885;SDS011;64561;44.018;10.144;2023-06-10T05:46:31;6.78;;;4.80;;
75885;SDS011;64561;44.018;10.144;2023-06-10T05:48:58;8.30;;;6.25;;
75885;SDS011;64561;44.018;10.144;2023-06-10T05:51:25;9.05;;;6.32;;
75885;SDS011;64561;44.018;10.144;2023-06-10T05:53:52;9.45;;;6.15;;
75885;SDS011;64561;44.018;10.144;2023-06-10T05:56:19;9.38;;;5.97;;
75885;SDS011;64561;44.018;10.144;2023-06-10T05:58:51;10.80;;;6.03;;
75885;SDS011;64561;44.018;10.144;2023-06-10T06:01:18;9.50;;;6.80;;
75885;SDS011;64561;44.018;10.144;2023-06-10T06:03:45;9.68;;;5.72;;
75885;SDS011;64561;44.018;10.144;2023-06-10T06:06:12;10.07;;;5.88;;
75885;SDS011;64561;44.018;10.144;2023-06-10T06:08:39;8.27;;;5.40;;
75885;SDS011;64561;44.018;10.144;2023-06-10T06:11:06;10.07;;;5.70;;
75885;SDS011;64561;44.018;10.144;2023-06-10T06:13:33;7.05;;;4.63;;
75885;SDS011;64561;44.018;10.144;2023-06-10T06:16:01;9.10;;;5.35;;
75885;SDS011;64561;44.018;10.144;2023-06-10T06:18:28;10.10;;;5.35;;
75885;SDS011;64561;44.018;10.144;2023-06-10T06:20:56;9.15;;;5.20;;
75885;SDS011;64561;44.018;10.144;2023-06-10T06:23:23;9.27;;;5.63;;
75885;SDS011;64561;44.018;10.144;2023-06-10T06:25:50;8.43;;;5.70;;
75885;SDS011;64561;44.018;10.144;2023-06-10T06:28:17;9.70;;;5.80;;
75885;SDS011;64561;44.018;10.144;2023-06-10T06:30:45;10.15;;;6.10;;
75885;SDS011;64561;44.018;10.144;2023-06-10T06:33:13;8.05;;;5.65;;
75885;SDS011;64561;44.018;10.144;2023-06-10T06:35:40;11.63;;;6.00;;
75885;SDS011;64561;44.018;10.144;2023-06-10T06:38:07;9.35;;;5.80;;
75885;SDS011;64561;44.018;10.144;2023-06-10T06:40:35;8.50;;;5.22;;
75885;SDS011;64561;44.018;10.144;2023-06-10T06:43:02;11.80;;;5.47;;
75885;SDS011;64561;44.018;10.144;2023-06-10T06:45:51;11.25;;;5.65;;
75885;SDS011;64561;44.018;10.144;2023-06-10T06:48:19;9.30;;;4.43;;
75885;SDS011;64561;44.018;10.144;2023-06-10T06:50:46;8.40;;;5.22;;
75885;SDS011;64561;44.018;10.144;2023-06-10T06:53:13;13.55;;;5.55;;
75885;SDS011;64561;44.018;10.144;2023-06-10T06:55:42;9.68;;;4.47;;
75885;SDS011;64561;44.018;10.144;2023-06-10T06:58:09;8.05;;;4.45;;
75885;SDS011;64561;44.018;10.144;2023-06-10T07:00:36;6.65;;;4.35;;
75885;SDS011;64561;44.018;10.144;2023-06-10T07:03:03;7.65;;;4.40;;
75885;SDS011;64561;44.018;10.144;2023-06-10T07:05:31;9.02;;;5.40;;
75885;SDS011;64561;44.018;10.144;2023-06-10T07:07:58;9.40;;;5.20;;
75885;SDS011;64561;44.018;10.144;2023-06-10T07:10:25;10.70;;;4.85;;
75885;SDS011;64561;44.018;10.144;2023-06-10T07:12:53;9.27;;;4.50;;
75885;SDS011;64561;44.018;10.144;2023-06-10T07:15:20;9.25;;;4.55;;
75885;SDS011;64561;44.018;10.144;2023-06-10T07:17:47;7.63;;;4.43;;
75885;SDS011;64561;44.018;10.144;2023-06-10T07:20:14;11.65;;;5.63;;
75885;SDS011;64561;44.018;10.144;2023-06-10T07:22:42;7.95;;;5.07;;
75885;SDS011;64561;44.018;10.144;2023-06-10T07:25:09;11.02;;;5.18;;
75885;SDS011;64561;44.018;10.144;2023-06-10T07:27:37;8.63;;;5.70;;
75885;SDS011;64561;44.018;10.144;2023-06-10T07:30:05;9.35;;;5.25;;
75885;SDS011;64561;44.018;10.144;2023-06-10T07:32:35;8.57;;;6.05;;
75885;SDS011;64561;44.018;10.144;2023-06-10T07:35:02;8.82;;;5.38;;
75885;SDS011;64561;44.018;10.144;2023-06-10T07:37:29;10.25;;;5.95;;
75885;SDS011;64561;44.018;10.144;2023-06-10T07:39:56;9.50;;;5.13;;
75885;SDS011;64561;44.018;10.144;2023-06-10T07:42:23;12.05;;;6.47;;
75885;SDS011;64561;44.018;10.144;2023-06-10T07:44:50;9.00;;;5.82;;
75885;SDS011;64561;44.018;10.144;2023-06-10T07:47:17;12.10;;;6.70;;
75885;SDS011;64561;44.018;10.144;2023-06-10T07:49:45;13.00;;;7.00;;
75885;SDS011;64561;44.018;10.144;2023-06-10T07:52:11;11.48;;;6.28;;
75885;SDS011;64561;44.018;10.144;2023-06-10T07:54:39;9.48;;;6.30;;
75885;SDS011;64561;44.018;10.144;2023-06-10T07:57:06;11.13;;;6.03;;
75885;SDS011;64561;44.018;10.144;2023-06-10T07:59:33;9.73;;;5.80;;
75885;SDS011;64561;44.018;10.144;2023-06-10T08:02:00;9.70;;;6.47;;
75885;SDS011;64561;44.018;10.144;2023-06-10T08:04:27;12.57;;;8.25;;
75885;SDS011;64561;44.018;10.144;2023-06-10T08:06:54;10.65;;;7.90;;
75885;SDS011;64561;44.018;10.144;2023-06-10T08:09:22;18.00;;;13.63;;
75885;SDS011;64561;44.018;10.144;2023-06-10T08:11:49;27.73;;;17.92;;
75885;SDS011;64561;44.018;10.144;2023-06-10T08:14:17;19.60;;;13.73;;
75885;SDS011;64561;44.018;10.144;2023-06-10T08:16:44;12.77;;;7.82;;
75885;SDS011;64561;44.018;10.144;2023-06-10T08:19:11;12.60;;;7.20;;
75885;SDS011;64561;44.018;10.144;2023-06-10T08:21:38;12.13;;;7.10;;
75885;SDS011;64561;44.018;10.144;2023-06-10T08:24:06;14.38;;;8.13;;
75885;SDS011;64561;44.018;10.144;2023-06-10T08:26:34;11.65;;;8.13;;
75885;SDS011;64561;44.018;10.144;2023-06-10T08:29:01;9.90;;;7.43;;
75885;SDS011;64561;44.018;10.144;2023-06-10T08:31:28;10.13;;;6.90;;
75885;SDS011;64561;44.018;10.144;2023-06-10T08:33:55;8.45;;;6.75;;
75885;SDS011;64561;44.018;10.144;2023-06-10T08:36:22;10.70;;;7.72;;
75885;SDS011;64561;44.018;10.144;2023-06-10T08:38:49;8.45;;;6.53;;
75885;SDS011;64561;44.018;10.144;2023-06-10T08:41:17;14.70;;;10.85;;
75885;SDS011;64561;44.018;10.144;2023-06-10T08:43:46;15.13;;;11.43;;
75885;SDS011;64561;44.018;10.144;2023-06-10T08:46:21;8.48;;;6.32;;
75885;SDS011;64561;44.018;10.144;2023-06-10T08:48:48;9.68;;;4.65;;
75885;SDS011;64561;44.018;10.144;2023-06-10T08:51:22;7.32;;;4.45;;
75885;SDS011;64561;44.018;10.144;2023-06-10T08:53:53;5.55;;;3.72;;
75885;SDS011;64561;44.018;10.144;2023-06-10T08:56:28;6.35;;;3.72;;
75885;SDS011;64561;44.018;10.144;2023-06-10T08:58:57;6.75;;;3.92;;
75885;SDS011;64561;44.018;10.144;2023-06-10T09:01:27;7.43;;;3.85;;
75885;SDS011;64561;44.018;10.144;2023-06-10T09:03:57;10.90;;;5.15;;
75885;SDS011;64561;44.018;10.144;2023-06-10T09:06:25;5.30;;;4.15;;
75885;SDS011;64561;44.018;10.144;2023-06-10T09:08:55;5.38;;;4.53;;
75885;SDS011;64561;44.018;10.144;2023-06-10T09:11:27;5.75;;;4.10;;
75885;SDS011;64561;44.018;10.144;2023-06-10T09:13:54;7.00;;;4.38;;
75885;SDS011;64561;44.018;10.144;2023-06-10T09:16:21;10.50;;;4.78;;
75885;SDS011;64561;44.018;10.144;2023-06-10T09:18:48;9.40;;;6.45;;
75885;SDS011;64561;44.018;10.144;2023-06-10T09:21:17;10.48;;;5.30;;
75885;SDS011;64561;44.018;10.144;2023-06-10T09:23:44;7.90;;;4.80;;
75885;SDS011;64561;44.018;10.144;2023-06-10T09:26:12;7.40;;;4.32;;
75885;SDS011;64561;44.018;10.144;2023-06-10T09:28:44;7.70;;;4.18;;
75885;SDS011;64561;44.018;10.144;2023-06-10T09:31:14;9.85;;;4.47;;
75885;SDS011;64561;44.018;10.144;2023-06-10T09:33:45;7.43;;;4.43;;
75885;SDS011;64561;44.018;10.144;2023-06-10T09:36:12;8.50;;;4.07;;
75885;SDS011;64561;44.018;10.144;2023-06-10T09:38:49;9.45;;;4.38;;
75885;SDS011;64561;44.018;10.144;2023-06-10T09:41:17;7.85;;;4.40;;
75885;SDS011;64561;44.018;10.144;2023-06-10T09:43:45;8.15;;;5.40;;
75885;SDS011;64561;44.018;10.144;2023-06-10T09:46:16;6.53;;;4.82;;
75885;SDS011;64561;44.018;10.144;2023-06-10T09:48:45;6.35;;;3.90;;
75885;SDS011;64561;44.018;10.144;2023-06-10T09:51:14;6.05;;;3.80;;
75885;SDS011;64561;44.018;10.144;2023-06-10T09:53:47;8.43;;;5.15;;
75885;SDS011;64561;44.018;10.144;2023-06-10T09:56:16;8.05;;;3.63;;
75885;SDS011;64561;44.018;10.144;2023-06-10T09:58:44;8.25;;;4.32;;
75885;SDS011;64561;44.018;10.144;2023-06-10T10:01:13;5.72;;;3.80;;
75885;SDS011;64561;44.018;10.144;2023-06-10T10:06:16;5.15;;;3.67;;
75885;SDS011;64561;44.018;10.144;2023-06-10T10:08:45;5.88;;;3.90;;
75885;SDS011;64561;44.018;10.144;2023-06-10T10:11:14;7.18;;;4.13;;
75885;SDS011;64561;44.018;10.144;2023-06-10T10:13:50;5.75;;;3.63;;
75885;SDS011;64561;44.018;10.144;2023-06-10T10:16:21;5.70;;;3.83;;
75885;SDS011;64561;44.018;10.144;2023-06-10T10:18:56;6.72;;;3.85;;
75885;SDS011;64561;44.018;10.144;2023-06-10T10:21:34;5.57;;;3.53;;
75885;SDS011;64561;44.018;10.144;2023-06-10T10:24:18;7.20;;;4.55;;
75885;SDS011;64561;44.018;10.144;2023-06-10T10:26:49;7.93;;;5.13;;
75885;SDS011;64561;44.018;10.144;2023-06-10T10:29:24;7.95;;;3.65;;
75885;SDS011;64561;44.018;10.144;2023-06-10T10:32:01;9.00;;;4.20;;
75885;SDS011;64561;44.018;10.144;2023-06-10T10:34:33;8.07;;;4.15;;
75885;SDS011;64561;44.018;10.144;2023-06-10T10:37:08;8.57;;;4.00;;
75885;SDS011;64561;44.018;10.144;2023-06-10T10:39:35;7.72;;;3.90;;
75885;SDS011;64561;44.018;10.144;2023-06-10T10:42:03;6.72;;;4.22;;
75885;SDS011;64561;44.018;10.144;2023-06-10T10:44:32;7.80;;;3.88;;
75885;SDS011;64561;44.018;10.144;2023-06-10T10:47:02;6.53;;;4.18;;
75885;SDS011;64561;44.018;10.144;2023-06-10T10:49:33;10.20;;;6.05;;
75885;SDS011;64561;44.018;10.144;2023-06-10T10:52:02;8.48;;;4.88;;
75885;SDS011;64561;44.018;10.144;2023-06-10T10:54:35;9.52;;;4.18;;
75885;SDS011;64561;44.018;10.144;2023-06-10T10:57:17;12.00;;;4.22;;
75885;SDS011;64561;44.018;10.144;2023-06-10T11:02:35;6.43;;;3.00;;
75885;SDS011;64561;44.018;10.144;2023-06-10T11:05:07;6.32;;;3.63;;
75885;SDS011;64561;44.018;10.144;2023-06-10T11:07:35;10.98;;;3.55;;
75885;SDS011;64561;44.018;10.144;2023-06-10T11:10:06;8.32;;;4.00;;
75885;SDS011;64561;44.018;10.144;2023-06-10T11:12:50;7.82;;;3.78;;
75885;SDS011;64561;44.018;10.144;2023-06-10T11:15:23;9.70;;;3.92;;
75885;SDS011;64561;44.018;10.144;2023-06-10T11:31:19;7.63;;;3.75;;
75885;SDS011;64561;44.018;10.144;2023-06-10T11:33:48;5.72;;;4.20;;
75885;SDS011;64561;44.018;10.144;2023-06-10T11:36:22;9.50;;;3.80;;
75885;SDS011;64561;44.018;10.144;2023-06-10T11:38:53;8.50;;;4.47;;
75885;SDS011;64561;44.018;10.144;2023-06-10T11:41:27;10.30;;;4.30;;
75885;SDS011;64561;44.018;10.144;2023-06-10T11:44:00;6.30;;;4.00;;
75885;SDS011;64561;44.018;10.144;2023-06-10T11:46:29;10.27;;;4.18;;
75885;SDS011;64561;44.018;10.144;2023-06-10T11:48:57;8.57;;;3.78;;
75885;SDS011;64561;44.018;10.144;2023-06-10T11:51:25;7.68;;;3.60;;
75885;SDS011;64561;44.018;10.144;2023-06-10T11:53:54;7.30;;;3.80;;
75885;SDS011;64561;44.018;10.144;2023-06-10T11:56:26;8.50;;;3.78;;
75885;SDS011;64561;44.018;10.144;2023-06-10T11:58:55;5.53;;;3.58;;
75885;SDS011;64561;44.018;10.144;2023-06-10T12:01:24;7.97;;;4.40;;
75885;SDS011;64561;44.018;10.144;2023-06-10T12:06:27;6.13;;;3.17;;
75885;SDS011;64561;44.018;10.144;2023-06-10T12:09:04;8.38;;;3.22;;
75885;SDS011;64561;44.018;10.144;2023-06-10T12:11:54;7.55;;;3.22;;
75885;SDS011;64561;44.018;10.144;2023-06-10T12:17:19;7.72;;;3.60;;
75885;SDS011;64561;44.018;10.144;2023-06-10T12:19:49;4.88;;;2.58;;
75885;SDS011;64561;44.018;10.144;2023-06-10T12:24:57;5.00;;;2.65;;
75885;SDS011;64561;44.018;10.144;2023-06-10T12:27:33;4.60;;;3.05;;
75885;SDS011;64561;44.018;10.144;2023-06-10T12:30:04;7.05;;;3.72;;
75885;SDS011;64561;44.018;10.144;2023-06-10T12:35:07;5.00;;;3.00;;
75885;SDS011;64561;44.018;10.144;2023-06-10T12:37:35;6.13;;;3.50;;
75885;SDS011;64561;44.018;10.144;2023-06-10T12:40:08;8.93;;;3.63;;
75885;SDS011;64561;44.018;10.144;2023-06-10T12:42:36;8.63;;;4.45;;
75885;SDS011;64561;44.018;10.144;2023-06-10T12:45:04;6.35;;;3.17;;
75885;SDS011;64561;44.018;10.144;2023-06-10T12:47:37;4.70;;;3.15;;
75885;SDS011;64561;44.018;10.144;2023-06-10T12:50:06;5.55;;;3.28;;
75885;SDS011;64561;44.018;10.144;2023-06-10T12:52:34;6.07;;;3.08;;
75885;SDS011;64561;44.018;10.144;2023-06-10T12:55:01;7.25;;;3.42;;
75885;SDS011;64561;44.018;10.144;2023-06-10T12:57:29;8.73;;;3.88;;
75885;SDS011;64561;44.018;10.144;2023-06-10T12:59:56;7.35;;;3.47;;
75885;SDS011;64561;44.018;10.144;2023-06-10T13:02:31;7.68;;;3.47;;
75885;SDS011;64561;44.018;10.144;2023-06-10T13:04:58;3.72;;;2.90;;
75885;SDS011;64561;44.018;10.144;2023-06-10T13:07:26;7.10;;;3.72;;
75885;SDS011;64561;44.018;10.144;2023-06-10T13:09:53;7.72;;;3.42;;
75885;SDS011;64561;44.018;10.144;2023-06-10T13:12:20;6.47;;;3.30;;
75885;SDS011;64561;44.018;10.144;2023-06-10T13:14:59;6.97;;;3.50;;
75885;SDS011;64561;44.018;10.144;2023-06-10T13:17:29;9.77;;;3.30;;
75885;SDS011;64561;44.018;10.144;2023-06-10T13:19:57;9.10;;;3.80;;
75885;SDS011;64561;44.018;10.144;2023-06-10T13:22:24;4.78;;;3.13;;
75885;SDS011;64561;44.018;10.144;2023-06-10T13:24:53;5.28;;;3.47;;
75885;SDS011;64561;44.018;10.144;2023-06-10T13:27:20;7.93;;;2.75;;
75885;SDS011;64561;44.018;10.144;2023-06-10T13:29:49;4.07;;;2.42;;
75885;SDS011;64561;44.018;10.144;2023-06-10T13:32:17;4.35;;;2.05;;
75885;SDS011;64561;44.018;10.144;2023-06-10T13:34:44;6.03;;;2.42;;
75885;SDS011;64561;44.018;10.144;2023-06-10T13:37:12;4.70;;;1.98;;
75885;SDS011;64561;44.018;10.144;2023-06-10T13:39:44;4.82;;;2.88;;
75885;SDS011;64561;44.018;10.144;2023-06-10T13:42:14;4.78;;;2.00;;
75885;SDS011;64561;44.018;10.144;2023-06-10T13:44:41;3.97;;;2.03;;
75885;SDS011;64561;44.018;10.144;2023-06-10T13:47:08;6.45;;;2.30;;
75885;SDS011;64561;44.018;10.144;2023-06-10T13:49:36;4.43;;;2.20;;
75885;SDS011;64561;44.018;10.144;2023-06-10T13:52:03;7.13;;;2.50;;
75885;SDS011;64561;44.018;10.144;2023-06-10T13:54:30;4.10;;;2.10;;
75885;SDS011;64561;44.018;10.144;2023-06-10T13:56:57;3.88;;;2.20;;
75885;SDS011;64561;44.018;10.144;2023-06-10T13:59:24;4.53;;;2.58;;
75885;SDS011;64561;44.018;10.144;2023-06-10T14:01:51;4.43;;;2.30;;
75885;SDS011;64561;44.018;10.144;2023-06-10T14:04:18;4.90;;;2.53;;
75885;SDS011;64561;44.018;10.144;2023-06-10T14:06:45;7.82;;;2.78;;
75885;SDS011;64561;44.018;10.144;2023-06-10T14:09:13;4.40;;;2.60;;
75885;SDS011;64561;44.018;10.144;2023-06-10T14:11:40;6.38;;;2.95;;
75885;SDS011;64561;44.018;10.144;2023-06-10T14:14:07;6.78;;;3.00;;
75885;SDS011;64561;44.018;10.144;2023-06-10T14:16:34;5.18;;;3.03;;
75885;SDS011;64561;44.018;10.144;2023-06-10T14:19:02;6.90;;;2.97;;
75885;SDS011;64561;44.018;10.144;2023-06-10T14:21:29;4.70;;;2.72;;
75885;SDS011;64561;44.018;10.144;2023-06-10T14:23:56;6.55;;;2.80;;
75885;SDS011;64561;44.018;10.144;2023-06-10T14:26:23;5.57;;;3.00;;
75885;SDS011;64561;44.018;10.144;2023-06-10T14:28:51;3.67;;;2.60;;
75885;SDS011;64561;44.018;10.144;2023-06-10T14:31:18;6.20;;;2.67;;
75885;SDS011;64561;44.018;10.144;2023-06-10T14:33:45;5.43;;;2.47;;
75885;SDS011;64561;44.018;10.144;2023-06-10T14:36:12;7.07;;;2.40;;
75885;SDS011;64561;44.018;10.144;2023-06-10T14:38:39;7.60;;;3.58;;
75885;SDS011;64561;44.018;10.144;2023-06-10T14:41:06;4.65;;;2.40;;
75885;SDS011;64561;44.018;10.144;2023-06-10T14:43:33;5.60;;;2.17;;
75885;SDS011;64561;44.018;10.144;2023-06-10T14:46:00;5.78;;;2.10;;
75885;SDS011;64561;44.018;10.144;2023-06-10T14:48:27;7.28;;;2.30;;
75885;SDS011;64561;44.018;10.144;2023-06-10T14:50:54;7.18;;;2.53;;
75885;SDS011;64561;44.018;10.144;2023-06-10T14:53:22;6.35;;;2.40;;
75885;SDS011;64561;44.018;10.144;2023-06-10T14:55:49;4.18;;;2.55;;
75885;SDS011;64561;44.018;10.144;2023-06-10T14:58:16;6.30;;;2.72;;
75885;SDS011;64561;44.018;10.144;2023-06-10T15:00:43;6.28;;;2.90;;
75885;SDS011;64561;44.018;10.144;2023-06-10T15:03:10;6.20;;;2.97;;
75885;SDS011;64561;44.018;10.144;2023-06-10T15:05:37;7.85;;;3.42;;
75885;SDS011;64561;44.018;10.144;2023-06-10T15:08:04;7.10;;;3.50;;
75885;SDS011;64561;44.018;10.144;2023-06-10T15:10:31;7.63;;;2.85;;
75885;SDS011;64561;44.018;10.144;2023-06-10T15:12:59;10.13;;;3.45;;
75885;SDS011;64561;44.018;10.144;2023-06-10T15:15:26;8.75;;;3.42;;
75885;SDS011;64561;44.018;10.144;2023-06-10T15:17:53;6.30;;;3.00;;
75885;SDS011;64561;44.018;10.144;2023-06-10T15:20:21;8.13;;;3.58;;
75885;SDS011;64561;44.018;10.144;2023-06-10T15:22:49;5.35;;;3.53;;
75885;SDS011;64561;44.018;10.144;2023-06-10T15:25:17;8.70;;;4.18;;